createdAt,value
2017-09-25T13:17:24.025Z,98.00
2017-09-25T13:19:51.708Z,98.00
2017-09-25T13:22:19.397Z,97.80
2017-09-25T13:24:47.367Z,96.70
2017-09-25T13:27:15.239Z,96.90
2017-09-25T13:29:42.845Z,98.10
2017-09-25T13:32:10.530Z,96.30
2017-09-25T13:34:38.166Z,96.80
2017-09-25T13:37:05.844Z,96.40
2017-09-25T13:39:33.543Z,97.30
2017-09-25T13:42:01.159Z,97.10
2017-09-25T13:44:28.827Z,95.50
2017-09-25T13:46:56.460Z,94.70
2017-09-25T13:49:24.864Z,95.20
2017-09-25T13:51:52.538Z,95.10
2017-09-25T13:54:20.526Z,95.20
2017-09-25T13:56:48.434Z,96.10
2017-09-25T14:04:24.211Z,97.20
2017-09-25T14:06:53.116Z,95.90
2017-09-25T14:09:21.048Z,94.90
2017-09-25T14:11:48.777Z,96.10
2017-09-25T14:14:17.490Z,96.40
2017-09-25T14:16:45.291Z,96.50
2017-09-25T14:19:12.989Z,99.00
2017-09-25T14:21:40.650Z,97.90
2017-09-25T14:24:10.061Z,96.50
2017-09-25T14:26:39.274Z,97.40
2017-09-25T14:29:10.117Z,96.00
2017-09-25T14:31:39.024Z,97.40
2017-09-25T14:34:06.926Z,97.10
2017-09-25T14:36:35.533Z,97.60
2017-09-25T14:39:04.710Z,96.90
2017-09-25T14:41:33.286Z,97.40
2017-09-25T14:44:03.403Z,99.70
2017-09-25T14:46:31.743Z,98.00
2017-09-25T14:48:59.376Z,98.10
2017-09-25T14:51:27.832Z,98.70
2017-09-25T14:53:56.305Z,98.70
2017-09-25T14:56:25.061Z,99.70
2017-09-25T14:58:52.782Z,99.00
2017-09-25T15:01:21.424Z,99.10
2017-09-25T15:06:39.294Z,99.50
2017-09-25T15:09:06.907Z,99.10
2017-09-25T15:11:34.580Z,99.90
2017-09-25T15:14:02.313Z,99.80
2017-09-25T15:16:31.228Z,99.40
2017-09-25T15:18:58.849Z,98.70
2017-09-25T15:21:26.508Z,98.70
2017-09-25T15:23:54.216Z,99.80
2017-09-25T15:26:21.880Z,99.90
2017-09-25T15:28:49.478Z,99.80
2017-09-25T15:31:17.679Z,99.20
2017-09-25T15:33:45.315Z,99.90
2017-09-25T15:36:12.911Z,98.70
2017-09-25T15:38:40.556Z,98.70
2017-09-25T15:41:08.413Z,99.80
2017-09-25T15:43:36.029Z,99.10
2017-09-25T15:46:03.633Z,99.90
2017-09-25T15:48:31.248Z,99.90
2017-09-25T15:50:58.868Z,98.80
2017-09-25T15:53:26.493Z,99.90
2017-09-25T15:55:54.088Z,99.90
2017-09-25T15:58:21.716Z,99.90
2017-09-25T16:00:49.308Z,99.90
2017-09-25T16:03:16.894Z,99.90
2017-09-25T16:05:45.271Z,99.90
2017-09-25T16:08:12.894Z,99.90
2017-09-25T16:10:40.502Z,99.90
2017-09-25T16:13:08.177Z,99.90
2017-09-25T16:15:35.789Z,99.90
2017-09-25T16:18:04.010Z,99.90
2017-09-25T16:20:31.694Z,99.90
2017-09-25T16:22:59.361Z,99.90
2017-09-25T16:25:48.218Z,99.90
2017-09-25T16:28:15.820Z,99.90
2017-09-25T16:30:43.441Z,99.90
2017-09-25T16:33:11.058Z,99.90
2017-09-25T16:35:38.675Z,99.90
2017-09-25T16:38:06.280Z,99.90
2017-09-25T16:40:33.892Z,99.90
2017-09-25T16:43:01.513Z,99.90
2017-09-25T16:45:30.190Z,99.90
2017-09-25T16:47:57.771Z,99.90
2017-09-25T16:50:25.395Z,99.90
2017-09-25T16:52:53.004Z,99.90
2017-09-25T16:55:20.607Z,99.90
2017-09-25T16:57:48.639Z,99.90
2017-09-25T17:00:16.228Z,99.90
2017-09-25T17:02:43.838Z,99.90
2017-09-25T17:05:11.464Z,99.90
2017-09-25T17:07:39.070Z,99.90
2017-09-25T17:10:07.456Z,99.90
2017-09-25T17:12:35.062Z,99.90
2017-09-25T17:15:02.662Z,99.90
2017-09-25T17:17:31.045Z,99.90
2017-09-25T17:19:59.425Z,99.90
2017-09-25T17:22:27.777Z,99.90
2017-09-25T17:24:55.390Z,99.90
2017-09-25T17:27:23.039Z,99.90
